AUA97B BIKF-LOWW
Flight info
| Callsign | AUA97B |
|---|---|
| Flight time | 3h 33m |
| Altitude | 35000 |
| Route | OSKUM3C OSKUM DCT RATSU/N0444F350 DCT DEVBI DCT BAMRA DCT FORTY DCT LAMRO DCT ARTEX DCT VAXIT DCT TUSKA DCT NEBUN DCT BOLBO DCT HDO DCT EVIKU DCT BITSI DCT MIKOV MIKOV8W |
| Aircraft | A321/M-SDE3FGHIRWY/LB1 |
Departure
| Time | 2026-04-25 06:51 |
|---|---|
| Airport | Keflavik International Airport (BIKF) |
Arrival
| Time | 2026-04-25 10:25 |
|---|---|
| Airport | Vienna International Airport (LOWW) |
| Time | Latitude | Longitude | Altitude | Speed | Heading |
|---|---|---|---|---|---|
| 2026-04-25 06:40 | 63.99385 | -22.62172 | 162 ft | 0 kts | 238° |
| 2026-04-25 06:48 | 63.99388 | -22.62163 | 162 ft | 1 kts | 238° |
| 2026-04-25 06:48 | 63.99388 | -22.62162 | 162 ft | 0 kts | 238° |
| 2026-04-25 06:49 | 63.99350 | -22.62170 | 162 ft | 11 kts | 151° |
| 2026-04-25 06:49 | 63.99255 | -22.62033 | 162 ft | 20 kts | 144° |
| 2026-04-25 06:49 | 63.99178 | -22.61928 | 162 ft | 13 kts | 112° |
| 2026-04-25 06:49 | 63.99173 | -22.61678 | 165 ft | 19 kts | 89° |
| 2026-04-25 06:50 | 63.99173 | -22.61323 | 168 ft | 24 kts | 90° |
| 2026-04-25 06:50 | 63.99172 | -22.60956 | 169 ft | 22 kts | 91° |
| 2026-04-25 06:50 | 63.99172 | -22.60643 | 170 ft | 14 kts | 94° |
| 2026-04-25 06:50 | 63.99155 | -22.60567 | 171 ft | 8 kts | 141° |
| 2026-04-25 06:51 | 63.99010 | -22.60542 | 168 ft | 55 kts | 180° |
| 2026-04-25 06:51 | 63.98339 | -22.60544 | 164 ft | 134 kts | 180° |
| 2026-04-25 06:51 | 63.97210 | -22.60580 | 302 ft | 179 kts | 180° |
| 2026-04-25 06:51 | 63.95997 | -22.60609 | 1384 ft | 172 kts | 175° |
| 2026-04-25 06:52 | 63.94866 | -22.59905 | 1897 ft | 176 kts | 145° |
| 2026-04-25 06:52 | 63.94153 | -22.57447 | 2032 ft | 204 kts | 115° |
| 2026-04-25 06:52 | 63.93628 | -22.54238 | 2233 ft | 229 kts | 115° |
| 2026-04-25 06:52 | 63.93037 | -22.50673 | 2532 ft | 252 kts | 115° |
| 2026-04-25 06:53 | 63.92372 | -22.46784 | 2809 ft | 275 kts | 115° |
| 2026-04-25 06:53 | 63.91647 | -22.42651 | 3313 ft | 286 kts | 115° |
| 2026-04-25 06:53 | 63.90886 | -22.38430 | 3966 ft | 292 kts | 116° |
| 2026-04-25 06:53 | 63.90103 | -22.34184 | 4610 ft | 298 kts | 116° |
| 2026-04-25 06:54 | 63.89285 | -22.29816 | 5233 ft | 304 kts | 116° |
| 2026-04-25 06:54 | 63.88444 | -22.25348 | 5774 ft | 312 kts | 116° |
| 2026-04-25 06:54 | 63.87571 | -22.20754 | 5989 ft | 320 kts | 115° |
| 2026-04-25 06:54 | 63.86681 | -22.16098 | 6023 ft | 322 kts | 116° |
| 2026-04-25 06:55 | 63.85791 | -22.11445 | 6026 ft | 322 kts | 116° |
| 2026-04-25 06:55 | 63.84901 | -22.06795 | 6026 ft | 322 kts | 116° |
| 2026-04-25 06:55 | 63.84023 | -22.02132 | 6034 ft | 322 kts | 112° |
| 2026-04-25 06:55 | 63.83527 | -21.97172 | 6039 ft | 325 kts | 99° |
| 2026-04-25 06:56 | 63.83250 | -21.92097 | 6036 ft | 324 kts | 99° |
| 2026-04-25 06:56 | 63.82969 | -21.87018 | 6039 ft | 324 kts | 99° |
| 2026-04-25 06:56 | 63.82686 | -21.81953 | 6036 ft | 324 kts | 99° |
| 2026-04-25 06:56 | 63.82404 | -21.76890 | 6050 ft | 325 kts | 99° |
| 2026-04-25 06:57 | 63.82118 | -21.71758 | 6600 ft | 331 kts | 98° |
| 2026-04-25 06:57 | 63.81824 | -21.66533 | 7124 ft | 338 kts | 98° |
| 2026-04-25 06:57 | 63.81511 | -21.61228 | 7351 ft | 342 kts | 99° |
| 2026-04-25 06:57 | 63.81109 | -21.55898 | 7989 ft | 344 kts | 101° |
| 2026-04-25 06:58 | 63.80643 | -21.50549 | 8592 ft | 348 kts | 102° |
| 2026-04-25 06:58 | 63.80146 | -21.45162 | 9166 ft | 352 kts | 102° |
| 2026-04-25 06:58 | 63.79647 | -21.39701 | 9756 ft | 356 kts | 102° |
| 2026-04-25 06:58 | 63.79157 | -21.34167 | 10302 ft | 360 kts | 101° |
| 2026-04-25 06:59 | 63.78674 | -21.28580 | 10848 ft | 363 kts | 101° |
| 2026-04-25 06:59 | 63.78203 | -21.23035 | 11434 ft | 364 kts | 101° |
| 2026-04-25 06:59 | 63.77723 | -21.17392 | 12027 ft | 366 kts | 101° |
| 2026-04-25 06:59 | 63.77237 | -21.11742 | 12619 ft | 367 kts | 101° |
| 2026-04-25 07:00 | 63.76746 | -21.06066 | 13235 ft | 368 kts | 101° |
| 2026-04-25 07:00 | 63.76252 | -21.00370 | 13837 ft | 369 kts | 102° |
| 2026-04-25 07:00 | 63.75755 | -20.94669 | 14393 ft | 371 kts | 102° |
| 2026-04-25 07:00 | 63.75253 | -20.88942 | 14896 ft | 372 kts | 102° |
| 2026-04-25 07:01 | 63.74745 | -20.83194 | 15382 ft | 374 kts | 102° |
| 2026-04-25 07:01 | 63.74229 | -20.77412 | 15863 ft | 376 kts | 102° |
| 2026-04-25 07:01 | 63.73706 | -20.71605 | 16336 ft | 378 kts | 103° |
| 2026-04-25 07:01 | 63.73179 | -20.65778 | 16813 ft | 380 kts | 103° |
| 2026-04-25 07:02 | 63.72653 | -20.60003 | 17277 ft | 381 kts | 103° |
| 2026-04-25 07:02 | 63.72114 | -20.54123 | 17742 ft | 383 kts | 103° |
| 2026-04-25 07:02 | 63.71572 | -20.48216 | 18208 ft | 385 kts | 104° |
| 2026-04-25 07:02 | 63.70827 | -20.42433 | 18630 ft | 385 kts | 113° |
| 2026-04-25 07:03 | 63.69736 | -20.36923 | 19001 ft | 385 kts | 116° |
| 2026-04-25 07:03 | 63.68615 | -20.31426 | 19364 ft | 387 kts | 116° |
| 2026-04-25 07:03 | 63.67487 | -20.25903 | 19720 ft | 388 kts | 116° |
| 2026-04-25 07:03 | 63.66358 | -20.20367 | 20051 ft | 390 kts | 116° |
| 2026-04-25 07:04 | 63.65225 | -20.14814 | 20389 ft | 391 kts | 116° |
| 2026-04-25 07:04 | 63.64086 | -20.09242 | 20738 ft | 393 kts | 116° |
| 2026-04-25 07:04 | 63.62937 | -20.03647 | 21063 ft | 394 kts | 116° |
| 2026-04-25 07:04 | 63.61780 | -19.98053 | 21400 ft | 395 kts | 116° |
| 2026-04-25 07:05 | 63.60612 | -19.92438 | 21730 ft | 397 kts | 117° |
| 2026-04-25 07:05 | 63.59439 | -19.86808 | 22076 ft | 398 kts | 116° |
| 2026-04-25 07:05 | 63.58260 | -19.81163 | 22415 ft | 400 kts | 116° |
| 2026-04-25 07:05 | 63.57091 | -19.75571 | 22754 ft | 402 kts | 116° |
| 2026-04-25 07:06 | 63.55901 | -19.69880 | 23084 ft | 404 kts | 117° |
| 2026-04-25 07:06 | 63.54703 | -19.64159 | 23436 ft | 405 kts | 116° |
| 2026-04-25 07:06 | 63.53502 | -19.58428 | 23780 ft | 407 kts | 117° |
| 2026-04-25 07:06 | 63.52290 | -19.52689 | 24089 ft | 408 kts | 117° |
| 2026-04-25 07:07 | 63.51070 | -19.46927 | 24364 ft | 410 kts | 116° |
| 2026-04-25 07:07 | 63.49844 | -19.41146 | 24648 ft | 412 kts | 117° |
| 2026-04-25 07:07 | 63.48612 | -19.35340 | 24923 ft | 413 kts | 116° |
| 2026-04-25 07:07 | 63.47373 | -19.29522 | 25192 ft | 415 kts | 117° |
| 2026-04-25 07:08 | 63.46125 | -19.23693 | 25454 ft | 416 kts | 117° |
| 2026-04-25 07:08 | 63.44870 | -19.17848 | 25738 ft | 418 kts | 117° |
| 2026-04-25 07:08 | 63.43609 | -19.11988 | 26008 ft | 419 kts | 117° |
| 2026-04-25 07:08 | 63.42338 | -19.06106 | 26268 ft | 421 kts | 117° |
| 2026-04-25 07:09 | 63.41062 | -19.00213 | 26525 ft | 422 kts | 117° |
| 2026-04-25 07:09 | 63.39779 | -18.94319 | 26791 ft | 423 kts | 117° |
| 2026-04-25 07:09 | 63.38486 | -18.88392 | 27053 ft | 425 kts | 117° |
| 2026-04-25 07:09 | 63.37210 | -18.82531 | 27279 ft | 427 kts | 117° |
| 2026-04-25 07:10 | 63.35911 | -18.76569 | 27528 ft | 428 kts | 117° |
| 2026-04-25 07:10 | 63.34605 | -18.70605 | 27771 ft | 430 kts | 117° |
| 2026-04-25 07:10 | 63.33288 | -18.64609 | 27997 ft | 431 kts | 117° |
| 2026-04-25 07:10 | 63.31962 | -18.58599 | 28231 ft | 433 kts | 118° |
| 2026-04-25 07:11 | 63.30631 | -18.52592 | 28466 ft | 434 kts | 118° |
| 2026-04-25 07:11 | 63.29290 | -18.46557 | 28700 ft | 436 kts | 118° |
| 2026-04-25 07:11 | 63.27944 | -18.40507 | 28922 ft | 437 kts | 118° |
| 2026-04-25 07:11 | 63.26594 | -18.34457 | 29133 ft | 438 kts | 118° |
| 2026-04-25 07:12 | 63.25238 | -18.28393 | 29350 ft | 439 kts | 118° |
| 2026-04-25 07:12 | 63.22501 | -18.16205 | 29714 ft | 442 kts | 118° |
| 2026-04-25 07:12 | 63.21125 | -18.10109 | 29895 ft | 443 kts | 118° |
| 2026-04-25 07:13 | 63.19742 | -18.04011 | 30072 ft | 444 kts | 118° |
| 2026-04-25 07:13 | 63.18355 | -17.97902 | 30278 ft | 443 kts | 118° |
| 2026-04-25 07:13 | 63.16968 | -17.91810 | 30528 ft | 442 kts | 118° |
| 2026-04-25 07:13 | 63.15600 | -17.85817 | 30739 ft | 441 kts | 118° |
| 2026-04-25 07:14 | 63.14216 | -17.79769 | 30950 ft | 440 kts | 118° |
| 2026-04-25 07:14 | 63.12830 | -17.73735 | 31139 ft | 440 kts | 118° |
| 2026-04-25 07:14 | 63.11444 | -17.67714 | 31324 ft | 440 kts | 118° |
| 2026-04-25 07:14 | 63.10055 | -17.61692 | 31540 ft | 439 kts | 118° |
| 2026-04-25 07:15 | 63.08663 | -17.55685 | 31726 ft | 439 kts | 118° |
| 2026-04-25 07:15 | 63.07272 | -17.49699 | 31925 ft | 438 kts | 118° |
| 2026-04-25 07:15 | 63.05876 | -17.43715 | 32124 ft | 438 kts | 119° |
| 2026-04-25 07:15 | 63.04484 | -17.37761 | 32330 ft | 438 kts | 118° |
| 2026-04-25 07:16 | 63.03088 | -17.31800 | 32536 ft | 437 kts | 118° |
| 2026-04-25 07:16 | 63.01694 | -17.25859 | 32722 ft | 437 kts | 118° |
| 2026-04-25 07:16 | 63.00298 | -17.19920 | 32911 ft | 437 kts | 119° |
| 2026-04-25 07:16 | 62.98900 | -17.13990 | 33113 ft | 436 kts | 118° |
| 2026-04-25 07:17 | 62.97500 | -17.08072 | 33303 ft | 436 kts | 118° |
| 2026-04-25 07:17 | 62.96117 | -17.02245 | 33475 ft | 436 kts | 118° |
| 2026-04-25 07:17 | 62.94714 | -16.96347 | 33676 ft | 435 kts | 118° |
| 2026-04-25 07:17 | 62.93308 | -16.90457 | 33858 ft | 435 kts | 118° |
| 2026-04-25 07:18 | 62.91903 | -16.84579 | 34047 ft | 435 kts | 118° |
| 2026-04-25 07:18 | 62.90494 | -16.78704 | 34236 ft | 434 kts | 118° |
| 2026-04-25 07:18 | 62.89085 | -16.72852 | 34417 ft | 434 kts | 118° |
| 2026-04-25 07:18 | 62.87675 | -16.66999 | 34557 ft | 434 kts | 119° |
| 2026-04-25 07:19 | 62.86264 | -16.61160 | 34710 ft | 434 kts | 118° |
| 2026-04-25 07:19 | 62.84848 | -16.55329 | 34861 ft | 433 kts | 119° |
| 2026-04-25 07:19 | 62.83430 | -16.49506 | 35016 ft | 433 kts | 119° |
| 2026-04-25 07:19 | 62.82010 | -16.43703 | 35177 ft | 432 kts | 119° |
| 2026-04-25 07:20 | 62.80590 | -16.37917 | 35320 ft | 432 kts | 119° |
| 2026-04-25 07:20 | 62.79173 | -16.32147 | 35352 ft | 431 kts | 118° |
| 2026-04-25 07:20 | 62.76348 | -16.20625 | 35352 ft | 430 kts | 118° |
| 2026-04-25 07:21 | 62.73513 | -16.09132 | 35354 ft | 430 kts | 119° |
| 2026-04-25 07:21 | 62.70661 | -15.97649 | 35354 ft | 430 kts | 119° |
| 2026-04-25 07:22 | 62.67822 | -15.86267 | 35351 ft | 430 kts | 119° |
| 2026-04-25 07:22 | 62.64942 | -15.74853 | 35350 ft | 430 kts | 119° |
| 2026-04-25 07:23 | 62.62057 | -15.63443 | 35348 ft | 431 kts | 119° |
| 2026-04-25 07:23 | 62.59169 | -15.52053 | 35345 ft | 431 kts | 119° |
| 2026-04-25 07:24 | 62.56263 | -15.40683 | 35343 ft | 431 kts | 119° |
| 2026-04-25 07:24 | 62.53353 | -15.29324 | 35343 ft | 431 kts | 119° |
| 2026-04-25 07:25 | 62.50439 | -15.17976 | 35340 ft | 431 kts | 119° |
| 2026-04-25 07:25 | 62.47509 | -15.06650 | 35339 ft | 431 kts | 119° |
| 2026-04-25 07:26 | 62.44561 | -14.95358 | 35343 ft | 432 kts | 119° |
| 2026-04-25 07:26 | 62.41596 | -14.84069 | 35335 ft | 432 kts | 119° |
| 2026-04-25 07:27 | 62.38656 | -14.72869 | 35337 ft | 432 kts | 119° |
| 2026-04-25 07:27 | 62.35685 | -14.61613 | 35339 ft | 432 kts | 120° |
| 2026-04-25 07:28 | 62.32679 | -14.50309 | 35336 ft | 432 kts | 120° |
| 2026-04-25 07:28 | 62.29702 | -14.39161 | 35337 ft | 433 kts | 120° |
| 2026-04-25 07:29 | 62.26697 | -14.27953 | 35342 ft | 433 kts | 120° |
| 2026-04-25 07:29 | 62.23684 | -14.16758 | 35333 ft | 433 kts | 120° |
| 2026-04-25 07:30 | 62.20655 | -14.05578 | 35331 ft | 433 kts | 120° |
| 2026-04-25 07:30 | 62.17614 | -13.94431 | 35330 ft | 434 kts | 120° |
| 2026-04-25 07:31 | 62.14561 | -13.83283 | 35332 ft | 434 kts | 120° |
| 2026-04-25 07:31 | 62.11507 | -13.72163 | 35335 ft | 434 kts | 120° |
| 2026-04-25 07:32 | 62.08455 | -13.61124 | 35335 ft | 434 kts | 120° |
| 2026-04-25 07:32 | 62.05377 | -13.50057 | 35335 ft | 434 kts | 120° |
| 2026-04-25 07:33 | 62.02286 | -13.39009 | 35334 ft | 434 kts | 120° |
| 2026-04-25 07:33 | 61.99192 | -13.27976 | 35333 ft | 434 kts | 120° |
| 2026-04-25 07:34 | 61.96083 | -13.16944 | 35335 ft | 435 kts | 120° |
| 2026-04-25 07:34 | 61.92971 | -13.05941 | 35330 ft | 435 kts | 120° |
| 2026-04-25 07:35 | 61.89835 | -12.94941 | 35326 ft | 435 kts | 120° |
| 2026-04-25 07:35 | 61.86698 | -12.83964 | 35327 ft | 436 kts | 120° |
| 2026-04-25 07:36 | 61.83551 | -12.72982 | 35327 ft | 436 kts | 120° |
| 2026-04-25 07:36 | 61.80381 | -12.62043 | 35329 ft | 436 kts | 120° |
| 2026-04-25 07:37 | 61.77201 | -12.51122 | 35330 ft | 436 kts | 120° |
| 2026-04-25 07:37 | 61.74023 | -12.40206 | 35330 ft | 436 kts | 120° |
| 2026-04-25 07:38 | 61.70830 | -12.29305 | 35330 ft | 437 kts | 120° |
| 2026-04-25 07:38 | 61.67628 | -12.18425 | 35324 ft | 437 kts | 120° |
| 2026-04-25 07:39 | 61.64436 | -12.07608 | 35324 ft | 438 kts | 120° |
| 2026-04-25 07:39 | 61.61208 | -11.96758 | 35323 ft | 438 kts | 121° |
| 2026-04-25 07:40 | 61.58483 | -11.87676 | 35319 ft | 438 kts | 121° |
| 2026-04-25 07:40 | 61.55239 | -11.76839 | 35318 ft | 438 kts | 120° |
| 2026-04-25 07:41 | 61.52011 | -11.66100 | 35323 ft | 439 kts | 121° |
| 2026-04-25 07:41 | 61.48741 | -11.55289 | 35319 ft | 439 kts | 121° |
| 2026-04-25 07:42 | 61.45462 | -11.44515 | 35319 ft | 439 kts | 121° |
| 2026-04-25 07:42 | 61.42169 | -11.33745 | 35318 ft | 440 kts | 121° |
| 2026-04-25 07:43 | 61.38867 | -11.22995 | 35315 ft | 440 kts | 121° |
| 2026-04-25 07:43 | 61.35552 | -11.12231 | 35317 ft | 440 kts | 121° |
| 2026-04-25 07:44 | 61.32234 | -11.01500 | 35312 ft | 441 kts | 121° |
| 2026-04-25 07:44 | 61.28892 | -10.90763 | 35316 ft | 441 kts | 121° |
| 2026-04-25 07:45 | 61.25565 | -10.80146 | 35321 ft | 441 kts | 121° |
| 2026-04-25 07:45 | 61.22210 | -10.69466 | 35318 ft | 442 kts | 121° |
| 2026-04-25 07:46 | 61.18844 | -10.58804 | 35318 ft | 442 kts | 121° |
| 2026-04-25 07:46 | 61.15471 | -10.48154 | 35319 ft | 442 kts | 121° |
| 2026-04-25 07:47 | 61.12082 | -10.37514 | 35316 ft | 442 kts | 121° |
| 2026-04-25 07:47 | 61.08681 | -10.26911 | 35313 ft | 443 kts | 121° |
| 2026-04-25 07:48 | 61.05277 | -10.16307 | 35311 ft | 443 kts | 121° |
| 2026-04-25 07:48 | 61.01853 | -10.05720 | 35310 ft | 443 kts | 122° |
| 2026-04-25 07:49 | 60.98818 | -9.94817 | 35310 ft | 441 kts | 112° |
| 2026-04-25 07:49 | 60.96243 | -9.83360 | 35307 ft | 441 kts | 112° |
| 2026-04-25 07:50 | 60.93644 | -9.71918 | 35306 ft | 441 kts | 113° |
| 2026-04-25 07:50 | 60.91027 | -9.60483 | 35307 ft | 442 kts | 113° |
| 2026-04-25 07:51 | 60.88402 | -9.49062 | 35304 ft | 442 kts | 113° |
| 2026-04-25 07:51 | 60.85762 | -9.37642 | 35306 ft | 443 kts | 113° |
| 2026-04-25 07:52 | 60.83122 | -9.26219 | 35301 ft | 443 kts | 113° |
| 2026-04-25 07:52 | 60.80461 | -9.14810 | 35304 ft | 444 kts | 113° |
| 2026-04-25 07:53 | 60.77776 | -9.03411 | 35306 ft | 444 kts | 114° |
| 2026-04-25 07:53 | 60.75086 | -8.92016 | 35305 ft | 445 kts | 114° |
| 2026-04-25 07:54 | 60.72382 | -8.80641 | 35304 ft | 445 kts | 114° |
| 2026-04-25 07:54 | 60.69674 | -8.69279 | 35304 ft | 445 kts | 114° |
| 2026-04-25 07:55 | 60.66947 | -8.57907 | 35305 ft | 446 kts | 114° |
| 2026-04-25 07:55 | 60.64228 | -8.46632 | 35302 ft | 446 kts | 114° |
| 2026-04-25 07:56 | 60.61480 | -8.35278 | 35300 ft | 447 kts | 114° |
| 2026-04-25 07:56 | 60.58727 | -8.23937 | 35298 ft | 447 kts | 114° |
| 2026-04-25 07:57 | 60.55953 | -8.12625 | 35299 ft | 447 kts | 114° |
| 2026-04-25 07:57 | 60.53167 | -8.01306 | 35302 ft | 448 kts | 114° |
| 2026-04-25 07:58 | 60.50373 | -7.90003 | 35301 ft | 448 kts | 114° |
| 2026-04-25 07:58 | 60.47569 | -7.78715 | 35302 ft | 448 kts | 114° |
| 2026-04-25 07:59 | 60.44747 | -7.67428 | 35298 ft | 449 kts | 114° |
| 2026-04-25 07:59 | 60.41919 | -7.56156 | 35296 ft | 449 kts | 114° |
| 2026-04-25 08:00 | 60.39075 | -7.44890 | 35293 ft | 450 kts | 114° |
| 2026-04-25 08:00 | 60.36216 | -7.33626 | 35296 ft | 450 kts | 114° |
| 2026-04-25 08:01 | 60.33347 | -7.22387 | 35293 ft | 451 kts | 114° |
| 2026-04-25 08:01 | 60.30464 | -7.11139 | 35286 ft | 451 kts | 114° |
| 2026-04-25 08:02 | 60.27569 | -6.99923 | 35291 ft | 451 kts | 115° |
| 2026-04-25 08:02 | 60.24662 | -6.88702 | 35297 ft | 452 kts | 115° |
| 2026-04-25 08:03 | 60.21767 | -6.77561 | 35289 ft | 452 kts | 115° |
| 2026-04-25 08:03 | 60.18837 | -6.66355 | 35291 ft | 453 kts | 115° |
| 2026-04-25 08:04 | 60.15899 | -6.55167 | 35291 ft | 453 kts | 115° |
| 2026-04-25 08:04 | 60.12947 | -6.43982 | 35290 ft | 453 kts | 115° |
| 2026-04-25 08:05 | 60.09977 | -6.32809 | 35291 ft | 454 kts | 115° |
| 2026-04-25 08:05 | 60.07006 | -6.21641 | 35284 ft | 454 kts | 115° |
| 2026-04-25 08:06 | 60.04037 | -6.10569 | 35283 ft | 455 kts | 115° |
| 2026-04-25 08:06 | 60.01039 | -5.99420 | 35285 ft | 455 kts | 115° |
| 2026-04-25 08:07 | 59.98014 | -5.88258 | 35296 ft | 460 kts | 115° |
| 2026-04-25 08:07 | 59.94928 | -5.76929 | 35289 ft | 468 kts | 116° |
| 2026-04-25 08:08 | 59.91802 | -5.65521 | 35285 ft | 470 kts | 116° |
| 2026-04-25 08:08 | 59.88657 | -5.54087 | 35286 ft | 470 kts | 116° |
| 2026-04-25 08:09 | 59.85504 | -5.42653 | 35286 ft | 471 kts | 116° |
| 2026-04-25 08:09 | 59.82356 | -5.31299 | 35287 ft | 471 kts | 116° |
| 2026-04-25 08:10 | 59.79174 | -5.19903 | 35286 ft | 472 kts | 116° |
| 2026-04-25 08:10 | 59.75976 | -5.08517 | 35285 ft | 472 kts | 116° |
| 2026-04-25 08:11 | 59.72766 | -4.97131 | 35283 ft | 473 kts | 116° |
| 2026-04-25 08:11 | 59.69550 | -4.85766 | 35283 ft | 473 kts | 116° |
| 2026-04-25 08:12 | 59.66333 | -4.74466 | 35280 ft | 473 kts | 116° |
| 2026-04-25 08:12 | 59.63093 | -4.63125 | 35281 ft | 474 kts | 116° |
| 2026-04-25 08:13 | 59.59835 | -4.51794 | 35282 ft | 474 kts | 116° |
| 2026-04-25 08:14 | 59.54923 | -4.34810 | 35282 ft | 475 kts | 117° |
| 2026-04-25 08:14 | 59.51649 | -4.23577 | 35278 ft | 475 kts | 116° |
| 2026-04-25 08:15 | 59.48346 | -4.12272 | 35276 ft | 476 kts | 117° |
| 2026-04-25 08:15 | 59.45041 | -4.01019 | 35275 ft | 476 kts | 117° |
| 2026-04-25 08:16 | 59.41716 | -3.89762 | 35261 ft | 477 kts | 117° |
| 2026-04-25 08:16 | 59.38369 | -3.78484 | 35262 ft | 477 kts | 117° |
| 2026-04-25 08:17 | 59.35007 | -3.67216 | 35262 ft | 478 kts | 117° |
| 2026-04-25 08:17 | 59.31636 | -3.55979 | 35263 ft | 478 kts | 117° |
| 2026-04-25 08:18 | 59.28253 | -3.44751 | 35261 ft | 479 kts | 117° |
| 2026-04-25 08:18 | 59.24877 | -3.33580 | 35265 ft | 479 kts | 117° |
| 2026-04-25 08:19 | 59.21465 | -3.22358 | 35263 ft | 480 kts | 117° |
| 2026-04-25 08:19 | 59.18042 | -3.11164 | 35268 ft | 480 kts | 117° |
| 2026-04-25 08:20 | 59.14609 | -2.99980 | 35273 ft | 481 kts | 117° |
| 2026-04-25 08:20 | 59.11151 | -2.88794 | 35271 ft | 481 kts | 118° |
| 2026-04-25 08:21 | 59.07714 | -2.77709 | 35269 ft | 482 kts | 118° |
| 2026-04-25 08:21 | 59.04241 | -2.66566 | 35276 ft | 482 kts | 118° |
| 2026-04-25 08:22 | 59.00755 | -2.55425 | 35269 ft | 483 kts | 118° |
| 2026-04-25 08:22 | 58.97257 | -2.44287 | 35268 ft | 483 kts | 118° |
| 2026-04-25 08:23 | 58.93743 | -2.33170 | 35258 ft | 483 kts | 118° |
| 2026-04-25 08:23 | 58.90221 | -2.22062 | 35258 ft | 484 kts | 118° |
| 2026-04-25 08:24 | 58.86706 | -2.11034 | 35250 ft | 484 kts | 118° |
| 2026-04-25 08:24 | 58.83157 | -1.99969 | 35253 ft | 485 kts | 118° |
| 2026-04-25 08:25 | 58.79591 | -1.88905 | 35245 ft | 485 kts | 118° |
| 2026-04-25 08:25 | 58.76618 | -1.79721 | 35250 ft | 486 kts | 118° |
| 2026-04-25 08:26 | 58.73032 | -1.68678 | 35242 ft | 486 kts | 119° |
| 2026-04-25 08:26 | 58.68852 | -1.55861 | 35240 ft | 486 kts | 119° |
| 2026-04-25 08:27 | 58.65848 | -1.46711 | 35235 ft | 486 kts | 119° |
| 2026-04-25 08:27 | 58.62221 | -1.35735 | 35232 ft | 486 kts | 119° |
| 2026-04-25 08:28 | 58.58593 | -1.24759 | 35227 ft | 487 kts | 119° |
| 2026-04-25 08:28 | 58.54959 | -1.13818 | 35225 ft | 487 kts | 119° |
| 2026-04-25 08:29 | 58.51306 | -1.02882 | 35222 ft | 488 kts | 119° |
| 2026-04-25 08:29 | 58.47639 | -0.91967 | 35227 ft | 488 kts | 120° |
| 2026-04-25 08:30 | 58.43979 | -0.81113 | 35228 ft | 489 kts | 120° |
| 2026-04-25 08:30 | 58.40273 | -0.70162 | 35229 ft | 490 kts | 120° |
| 2026-04-25 08:31 | 58.36568 | -0.59256 | 35228 ft | 491 kts | 120° |
| 2026-04-25 08:31 | 58.32844 | -0.48351 | 35229 ft | 491 kts | 120° |
| 2026-04-25 08:32 | 58.29099 | -0.37474 | 35228 ft | 492 kts | 120° |
| 2026-04-25 08:32 | 58.25343 | -0.26608 | 35226 ft | 492 kts | 120° |
| 2026-04-25 08:33 | 58.21609 | -0.15813 | 35225 ft | 492 kts | 120° |
| 2026-04-25 08:33 | 58.17841 | -0.04966 | 35225 ft | 493 kts | 120° |
| 2026-04-25 08:34 | 58.14053 | 0.05871 | 35219 ft | 493 kts | 120° |
| 2026-04-25 08:34 | 58.10253 | 0.16676 | 35218 ft | 493 kts | 120° |
| 2026-04-25 08:35 | 58.06442 | 0.27463 | 35212 ft | 493 kts | 120° |
| 2026-04-25 08:35 | 58.02625 | 0.38224 | 35210 ft | 494 kts | 121° |
| 2026-04-25 08:36 | 57.98789 | 0.48969 | 35206 ft | 494 kts | 121° |
| 2026-04-25 08:36 | 57.94989 | 0.59667 | 35202 ft | 493 kts | 117° |
| 2026-04-25 08:37 | 57.91684 | 0.70935 | 35193 ft | 492 kts | 115° |
| 2026-04-25 08:37 | 57.88382 | 0.82207 | 35189 ft | 492 kts | 115° |
| 2026-04-25 08:38 | 57.85055 | 0.93475 | 35189 ft | 493 kts | 115° |
| 2026-04-25 08:38 | 57.81712 | 1.04725 | 35188 ft | 494 kts | 115° |
| 2026-04-25 08:39 | 57.78361 | 1.15983 | 35187 ft | 494 kts | 116° |
| 2026-04-25 08:39 | 57.75022 | 1.27159 | 35186 ft | 495 kts | 116° |
| 2026-04-25 08:40 | 57.71636 | 1.38386 | 35184 ft | 496 kts | 116° |
| 2026-04-25 08:40 | 57.68240 | 1.49612 | 35182 ft | 496 kts | 116° |
| 2026-04-25 08:41 | 57.64828 | 1.60836 | 35186 ft | 497 kts | 116° |
| 2026-04-25 08:41 | 57.61404 | 1.72041 | 35183 ft | 497 kts | 116° |
| 2026-04-25 08:42 | 57.57972 | 1.83248 | 35182 ft | 498 kts | 116° |
| 2026-04-25 08:42 | 57.54523 | 1.94429 | 35177 ft | 498 kts | 116° |
| 2026-04-25 08:43 | 57.51056 | 2.05607 | 35176 ft | 498 kts | 116° |
| 2026-04-25 08:43 | 57.47607 | 2.16708 | 35172 ft | 499 kts | 116° |
| 2026-04-25 08:44 | 57.44114 | 2.27850 | 35160 ft | 499 kts | 117° |
| 2026-04-25 08:44 | 57.40611 | 2.38992 | 35155 ft | 500 kts | 117° |
| 2026-04-25 08:45 | 57.37099 | 2.50116 | 35146 ft | 500 kts | 117° |
| 2026-04-25 08:45 | 57.33583 | 2.61246 | 35141 ft | 500 kts | 117° |
| 2026-04-25 08:46 | 57.30046 | 2.72358 | 35131 ft | 501 kts | 117° |
| 2026-04-25 08:46 | 57.26494 | 2.83435 | 35139 ft | 501 kts | 117° |
| 2026-04-25 08:47 | 57.22933 | 2.94495 | 35148 ft | 501 kts | 117° |
| 2026-04-25 08:47 | 57.19382 | 3.05470 | 35149 ft | 501 kts | 117° |
| 2026-04-25 08:48 | 57.15806 | 3.16501 | 35148 ft | 501 kts | 117° |
| 2026-04-25 08:48 | 57.12213 | 3.27531 | 35143 ft | 502 kts | 118° |
| 2026-04-25 08:49 | 57.08611 | 3.38533 | 35138 ft | 502 kts | 118° |
| 2026-04-25 08:49 | 57.04994 | 3.49519 | 35137 ft | 502 kts | 118° |
| 2026-04-25 08:50 | 57.01363 | 3.60493 | 35132 ft | 503 kts | 118° |
| 2026-04-25 08:50 | 56.97723 | 3.71461 | 35124 ft | 504 kts | 118° |
| 2026-04-25 08:51 | 56.94065 | 3.82405 | 35131 ft | 504 kts | 118° |
| 2026-04-25 08:51 | 56.90394 | 3.93351 | 35131 ft | 504 kts | 118° |
| 2026-04-25 08:52 | 56.86715 | 4.04294 | 35127 ft | 505 kts | 118° |
| 2026-04-25 08:52 | 56.83047 | 4.15136 | 35124 ft | 505 kts | 119° |
| 2026-04-25 08:53 | 56.79341 | 4.26036 | 35120 ft | 505 kts | 119° |
| 2026-04-25 08:53 | 56.75621 | 4.36914 | 35119 ft | 506 kts | 119° |
| 2026-04-25 08:54 | 56.71894 | 4.47784 | 35121 ft | 506 kts | 120° |
| 2026-04-25 08:54 | 56.68156 | 4.58645 | 35116 ft | 507 kts | 120° |
| 2026-04-25 08:55 | 56.64395 | 4.69519 | 35119 ft | 508 kts | 120° |
| 2026-04-25 08:55 | 56.60627 | 4.80368 | 35116 ft | 508 kts | 120° |
| 2026-04-25 08:56 | 56.56837 | 4.91207 | 35116 ft | 508 kts | 120° |
| 2026-04-25 08:56 | 56.52830 | 5.01789 | 35115 ft | 510 kts | 130° |
| 2026-04-25 08:57 | 56.48071 | 5.11233 | 35111 ft | 511 kts | 131° |
| 2026-04-25 08:57 | 56.43274 | 5.20726 | 35103 ft | 512 kts | 131° |
| 2026-04-25 08:58 | 56.38473 | 5.30218 | 35099 ft | 512 kts | 132° |
| 2026-04-25 08:58 | 56.33652 | 5.39691 | 35098 ft | 512 kts | 132° |
| 2026-04-25 08:59 | 56.28810 | 5.49117 | 35099 ft | 513 kts | 132° |
| 2026-04-25 08:59 | 56.23955 | 5.58539 | 35100 ft | 513 kts | 133° |
| 2026-04-25 09:00 | 56.19100 | 5.67935 | 35097 ft | 513 kts | 133° |
| 2026-04-25 09:00 | 56.14237 | 5.77334 | 35098 ft | 514 kts | 133° |
| 2026-04-25 09:01 | 56.09360 | 5.86713 | 35099 ft | 514 kts | 133° |
| 2026-04-25 09:01 | 56.04471 | 5.96074 | 35096 ft | 514 kts | 133° |
| 2026-04-25 09:02 | 55.99602 | 6.05337 | 35097 ft | 515 kts | 133° |
| 2026-04-25 09:02 | 55.94685 | 6.14666 | 35102 ft | 515 kts | 133° |
| 2026-04-25 09:03 | 55.89773 | 6.23968 | 35102 ft | 515 kts | 134° |
| 2026-04-25 09:03 | 55.84850 | 6.33257 | 35097 ft | 515 kts | 134° |
| 2026-04-25 09:04 | 55.79916 | 6.42508 | 35099 ft | 516 kts | 134° |
| 2026-04-25 09:04 | 55.74977 | 6.51740 | 35103 ft | 516 kts | 134° |
| 2026-04-25 09:05 | 55.70027 | 6.60976 | 35108 ft | 516 kts | 134° |
| 2026-04-25 09:05 | 55.65105 | 6.70123 | 35108 ft | 516 kts | 134° |
| 2026-04-25 09:06 | 55.60136 | 6.79281 | 35111 ft | 516 kts | 135° |
| 2026-04-25 09:06 | 55.55159 | 6.88432 | 35108 ft | 516 kts | 135° |
| 2026-04-25 09:07 | 55.50182 | 6.97548 | 35108 ft | 516 kts | 135° |
| 2026-04-25 09:07 | 55.45197 | 7.06645 | 35109 ft | 515 kts | 135° |
| 2026-04-25 09:08 | 55.40214 | 7.15703 | 35109 ft | 515 kts | 135° |
| 2026-04-25 09:08 | 55.35230 | 7.24751 | 35105 ft | 514 kts | 135° |
| 2026-04-25 09:09 | 55.30243 | 7.33765 | 35108 ft | 514 kts | 135° |
| 2026-04-25 09:09 | 55.25285 | 7.42686 | 35109 ft | 514 kts | 135° |
| 2026-04-25 09:10 | 55.20287 | 7.51631 | 35112 ft | 513 kts | 136° |
| 2026-04-25 09:10 | 55.15284 | 7.60556 | 35116 ft | 513 kts | 136° |
| 2026-04-25 09:11 | 55.07781 | 7.73889 | 35118 ft | 512 kts | 136° |
| 2026-04-25 09:11 | 55.02771 | 7.82731 | 35116 ft | 512 kts | 136° |
| 2026-04-25 09:12 | 54.97772 | 7.91568 | 35108 ft | 511 kts | 135° |
| 2026-04-25 09:12 | 54.92907 | 8.00565 | 35106 ft | 510 kts | 134° |
| 2026-04-25 09:13 | 54.88086 | 8.09617 | 35105 ft | 510 kts | 134° |
| 2026-04-25 09:13 | 54.83275 | 8.18530 | 35101 ft | 509 kts | 134° |
| 2026-04-25 09:14 | 54.78389 | 8.27430 | 35112 ft | 508 kts | 135° |
| 2026-04-25 09:14 | 54.73507 | 8.36292 | 35109 ft | 508 kts | 135° |
| 2026-04-25 09:15 | 54.68641 | 8.45134 | 35101 ft | 507 kts | 134° |
| 2026-04-25 09:15 | 54.63784 | 8.53938 | 35098 ft | 506 kts | 135° |
| 2026-04-25 09:16 | 54.59740 | 8.61227 | 35093 ft | 506 kts | 135° |
| 2026-04-25 09:16 | 54.54867 | 8.69965 | 35095 ft | 505 kts | 135° |
| 2026-04-25 09:17 | 54.47558 | 8.83054 | 35100 ft | 505 kts | 135° |
| 2026-04-25 09:18 | 54.42675 | 8.91741 | 35103 ft | 505 kts | 135° |
| 2026-04-25 09:18 | 54.37788 | 9.00397 | 35087 ft | 505 kts | 135° |
| 2026-04-25 09:19 | 54.32894 | 9.09039 | 35081 ft | 505 kts | 135° |
| 2026-04-25 09:19 | 54.27997 | 9.17662 | 35072 ft | 504 kts | 135° |
| 2026-04-25 09:20 | 54.23134 | 9.26202 | 35061 ft | 504 kts | 135° |
| 2026-04-25 09:20 | 54.18232 | 9.34783 | 35060 ft | 505 kts | 135° |
| 2026-04-25 09:21 | 54.13314 | 9.43343 | 35061 ft | 505 kts | 136° |
| 2026-04-25 09:21 | 54.08390 | 9.51882 | 35064 ft | 505 kts | 136° |
| 2026-04-25 09:22 | 54.03454 | 9.60425 | 35062 ft | 505 kts | 136° |
| 2026-04-25 09:22 | 53.98520 | 9.68938 | 35071 ft | 505 kts | 136° |
| 2026-04-25 09:23 | 53.93573 | 9.77426 | 35081 ft | 506 kts | 136° |
| 2026-04-25 09:23 | 53.88616 | 9.85900 | 35085 ft | 506 kts | 136° |
| 2026-04-25 09:24 | 53.83651 | 9.94368 | 35095 ft | 506 kts | 136° |
| 2026-04-25 09:24 | 53.78717 | 10.02750 | 35101 ft | 506 kts | 136° |
| 2026-04-25 09:25 | 53.73739 | 10.11169 | 35108 ft | 506 kts | 136° |
| 2026-04-25 09:25 | 53.68754 | 10.19585 | 35106 ft | 506 kts | 136° |
| 2026-04-25 09:26 | 53.63767 | 10.27970 | 35098 ft | 506 kts | 136° |
| 2026-04-25 09:26 | 53.58773 | 10.36333 | 35092 ft | 506 kts | 137° |
| 2026-04-25 09:27 | 53.53766 | 10.44681 | 35086 ft | 507 kts | 137° |
| 2026-04-25 09:27 | 53.48765 | 10.53013 | 35076 ft | 506 kts | 137° |
| 2026-04-25 09:28 | 53.43792 | 10.61269 | 35082 ft | 505 kts | 137° |
| 2026-04-25 09:28 | 53.38783 | 10.69525 | 35081 ft | 505 kts | 137° |
| 2026-04-25 09:29 | 53.33771 | 10.77769 | 35076 ft | 504 kts | 137° |
| 2026-04-25 09:29 | 53.28759 | 10.85985 | 35074 ft | 504 kts | 137° |
| 2026-04-25 09:30 | 53.23750 | 10.94178 | 35075 ft | 503 kts | 137° |
| 2026-04-25 09:30 | 53.18741 | 11.02343 | 35075 ft | 503 kts | 137° |
| 2026-04-25 09:31 | 53.13761 | 11.10429 | 35076 ft | 503 kts | 137° |
| 2026-04-25 09:31 | 53.08736 | 11.18540 | 35081 ft | 503 kts | 137° |
| 2026-04-25 09:32 | 53.03707 | 11.26606 | 35077 ft | 502 kts | 138° |
| 2026-04-25 09:32 | 52.98641 | 11.34596 | 35080 ft | 502 kts | 138° |
| 2026-04-25 09:33 | 52.93555 | 11.42545 | 35083 ft | 502 kts | 138° |
| 2026-04-25 09:33 | 52.88475 | 11.50489 | 35085 ft | 502 kts | 138° |
| 2026-04-25 09:34 | 52.83402 | 11.58418 | 35079 ft | 501 kts | 138° |
| 2026-04-25 09:34 | 52.78364 | 11.66272 | 35079 ft | 501 kts | 138° |
| 2026-04-25 09:35 | 52.73286 | 11.74138 | 35076 ft | 500 kts | 138° |
| 2026-04-25 09:35 | 52.68205 | 11.81970 | 35081 ft | 500 kts | 138° |
| 2026-04-25 09:36 | 52.63128 | 11.89795 | 35082 ft | 500 kts | 138° |
| 2026-04-25 09:36 | 52.58047 | 11.97609 | 35084 ft | 499 kts | 138° |
| 2026-04-25 09:37 | 52.52969 | 12.05395 | 35083 ft | 498 kts | 138° |
| 2026-04-25 09:37 | 52.47905 | 12.13140 | 35082 ft | 497 kts | 138° |
| 2026-04-25 09:38 | 52.42833 | 12.20857 | 35083 ft | 496 kts | 139° |
| 2026-04-25 09:38 | 52.37770 | 12.28523 | 35081 ft | 496 kts | 139° |
| 2026-04-25 09:39 | 52.32734 | 12.36125 | 35085 ft | 495 kts | 139° |
| 2026-04-25 09:39 | 52.27675 | 12.43747 | 35087 ft | 494 kts | 139° |
| 2026-04-25 09:40 | 52.20084 | 12.55124 | 35085 ft | 493 kts | 139° |
| 2026-04-25 09:40 | 52.15027 | 12.62668 | 35084 ft | 493 kts | 139° |
| 2026-04-25 09:41 | 52.09974 | 12.70197 | 35084 ft | 492 kts | 139° |
| 2026-04-25 09:41 | 52.04915 | 12.77714 | 35085 ft | 492 kts | 139° |
| 2026-04-25 09:42 | 51.99858 | 12.85199 | 35086 ft | 491 kts | 139° |
| 2026-04-25 09:42 | 51.94786 | 12.92648 | 35078 ft | 491 kts | 139° |
| 2026-04-25 09:43 | 51.89733 | 12.99988 | 35071 ft | 491 kts | 139° |
| 2026-04-25 09:43 | 51.84637 | 13.07368 | 35070 ft | 491 kts | 140° |
| 2026-04-25 09:44 | 51.79551 | 13.14736 | 35064 ft | 491 kts | 140° |
| 2026-04-25 09:44 | 51.74449 | 13.22094 | 35059 ft | 491 kts | 140° |
| 2026-04-25 09:45 | 51.69380 | 13.29410 | 35058 ft | 492 kts | 140° |
| 2026-04-25 09:45 | 51.64233 | 13.36802 | 35060 ft | 492 kts | 141° |
| 2026-04-25 09:46 | 51.59141 | 13.44079 | 35059 ft | 493 kts | 141° |
| 2026-04-25 09:46 | 51.53995 | 13.51414 | 35062 ft | 494 kts | 141° |
| 2026-04-25 09:47 | 51.48834 | 13.58746 | 35060 ft | 495 kts | 141° |
| 2026-04-25 09:47 | 51.43707 | 13.66012 | 35063 ft | 495 kts | 142° |
| 2026-04-25 09:48 | 51.38500 | 13.73360 | 35060 ft | 496 kts | 142° |
| 2026-04-25 09:48 | 51.33341 | 13.80624 | 35058 ft | 497 kts | 142° |
| 2026-04-25 09:49 | 51.28134 | 13.87922 | 35062 ft | 498 kts | 143° |
| 2026-04-25 09:49 | 51.22917 | 13.95213 | 35062 ft | 499 kts | 143° |
| 2026-04-25 09:50 | 51.17686 | 14.02509 | 35063 ft | 499 kts | 143° |
| 2026-04-25 09:50 | 51.12441 | 14.09803 | 35064 ft | 500 kts | 143° |
| 2026-04-25 09:51 | 51.07227 | 14.17029 | 35054 ft | 500 kts | 143° |
| 2026-04-25 09:51 | 51.01968 | 14.24293 | 35051 ft | 500 kts | 143° |
| 2026-04-25 09:52 | 50.96695 | 14.31508 | 35054 ft | 499 kts | 146° |
| 2026-04-25 09:52 | 50.90835 | 14.37072 | 35052 ft | 485 kts | 164° |
| 2026-04-25 09:53 | 50.84448 | 14.39990 | 35051 ft | 475 kts | 173° |
| 2026-04-25 09:53 | 50.78002 | 14.42380 | 35052 ft | 476 kts | 173° |
| 2026-04-25 09:54 | 50.71564 | 14.44777 | 35053 ft | 475 kts | 173° |
| 2026-04-25 09:54 | 50.65134 | 14.47156 | 35059 ft | 475 kts | 173° |
| 2026-04-25 09:55 | 50.58743 | 14.49510 | 35055 ft | 474 kts | 173° |
| 2026-04-25 09:55 | 50.52314 | 14.51874 | 35051 ft | 474 kts | 173° |
| 2026-04-25 09:56 | 50.46079 | 14.55565 | 35050 ft | 488 kts | 155° |
| 2026-04-25 09:56 | 50.43261 | 14.58581 | 35047 ft | 494 kts | 144° |
| 2026-04-25 09:56 | 50.40730 | 14.62262 | 35050 ft | 498 kts | 140° |
| 2026-04-25 09:57 | 50.35765 | 14.69836 | 35050 ft | 498 kts | 140° |
| 2026-04-25 09:57 | 50.30779 | 14.77360 | 35053 ft | 498 kts | 140° |
| 2026-04-25 09:58 | 50.25813 | 14.84816 | 35057 ft | 498 kts | 140° |
| 2026-04-25 09:58 | 50.20817 | 14.92311 | 35057 ft | 498 kts | 140° |
| 2026-04-25 09:59 | 50.15823 | 14.99794 | 35058 ft | 497 kts | 140° |
| 2026-04-25 09:59 | 50.10819 | 15.07261 | 35054 ft | 497 kts | 140° |
| 2026-04-25 10:00 | 50.05817 | 15.14706 | 35055 ft | 497 kts | 140° |
| 2026-04-25 10:00 | 50.00813 | 15.22129 | 35052 ft | 497 kts | 140° |
| 2026-04-25 10:01 | 49.95799 | 15.29533 | 35053 ft | 497 kts | 140° |
| 2026-04-25 10:01 | 49.90817 | 15.36880 | 35048 ft | 497 kts | 140° |
| 2026-04-25 10:02 | 49.85800 | 15.44262 | 35048 ft | 497 kts | 140° |
| 2026-04-25 10:02 | 49.80772 | 15.51628 | 35053 ft | 497 kts | 140° |
| 2026-04-25 10:03 | 49.75743 | 15.58981 | 35053 ft | 497 kts | 140° |
| 2026-04-25 10:03 | 49.70708 | 15.66311 | 35049 ft | 497 kts | 140° |
| 2026-04-25 10:04 | 49.65672 | 15.73627 | 35051 ft | 497 kts | 140° |
| 2026-04-25 10:04 | 49.61483 | 15.79700 | 35044 ft | 497 kts | 140° |
| 2026-04-25 10:05 | 49.55613 | 15.88174 | 35044 ft | 497 kts | 140° |
| 2026-04-25 10:05 | 49.50551 | 15.95442 | 35045 ft | 497 kts | 140° |
| 2026-04-25 10:06 | 49.46332 | 16.01487 | 34473 ft | 499 kts | 140° |
| 2026-04-25 10:06 | 49.43796 | 16.05122 | 33855 ft | 498 kts | 140° |
| 2026-04-25 10:06 | 49.41256 | 16.08762 | 33168 ft | 499 kts | 140° |
| 2026-04-25 10:07 | 49.38708 | 16.12405 | 32505 ft | 501 kts | 140° |
| 2026-04-25 10:07 | 49.36152 | 16.16049 | 31854 ft | 502 kts | 140° |
| 2026-04-25 10:07 | 49.33586 | 16.19705 | 31220 ft | 504 kts | 141° |
| 2026-04-25 10:07 | 49.30868 | 16.23080 | 30595 ft | 501 kts | 149° |
| 2026-04-25 10:08 | 49.27897 | 16.25826 | 29967 ft | 497 kts | 158° |
| 2026-04-25 10:08 | 49.24786 | 16.28124 | 29262 ft | 498 kts | 159° |
| 2026-04-25 10:08 | 49.21657 | 16.30424 | 28569 ft | 500 kts | 159° |
| 2026-04-25 10:08 | 49.18522 | 16.32740 | 27889 ft | 501 kts | 158° |
| 2026-04-25 10:09 | 49.15374 | 16.35071 | 27228 ft | 503 kts | 158° |
| 2026-04-25 10:09 | 49.12220 | 16.37405 | 26585 ft | 504 kts | 158° |
| 2026-04-25 10:09 | 49.09053 | 16.39743 | 25947 ft | 506 kts | 158° |
| 2026-04-25 10:09 | 49.05881 | 16.42079 | 25317 ft | 507 kts | 158° |
| 2026-04-25 10:10 | 49.02697 | 16.44420 | 24715 ft | 508 kts | 158° |
| 2026-04-25 10:10 | 48.99508 | 16.46760 | 24124 ft | 508 kts | 157° |
| 2026-04-25 10:10 | 48.96330 | 16.49088 | 23536 ft | 505 kts | 157° |
| 2026-04-25 10:10 | 48.93177 | 16.51397 | 22836 ft | 500 kts | 157° |
| 2026-04-25 10:11 | 48.90105 | 16.53643 | 21968 ft | 495 kts | 157° |
| 2026-04-25 10:11 | 48.87004 | 16.55907 | 21009 ft | 492 kts | 157° |
| 2026-04-25 10:11 | 48.83941 | 16.58136 | 20265 ft | 484 kts | 157° |
| 2026-04-25 10:11 | 48.80924 | 16.60331 | 19534 ft | 477 kts | 157° |
| 2026-04-25 10:12 | 48.77872 | 16.62190 | 18819 ft | 467 kts | 165° |
| 2026-04-25 10:12 | 48.74747 | 16.63350 | 18089 ft | 459 kts | 171° |
| 2026-04-25 10:12 | 48.68578 | 16.65363 | 16517 ft | 448 kts | 170° |
| 2026-04-25 10:13 | 48.65554 | 16.66353 | 15763 ft | 442 kts | 170° |
| 2026-04-25 10:13 | 48.62546 | 16.67093 | 15100 ft | 432 kts | 178° |
| 2026-04-25 10:13 | 48.59598 | 16.67028 | 14617 ft | 417 kts | 189° |
| 2026-04-25 10:13 | 48.56769 | 16.66200 | 14141 ft | 417 kts | 199° |
| 2026-04-25 10:14 | 48.54105 | 16.64652 | 13649 ft | 404 kts | 209° |
| 2026-04-25 10:14 | 48.51726 | 16.62508 | 13122 ft | 393 kts | 218° |
| 2026-04-25 10:14 | 48.49459 | 16.60371 | 12609 ft | 387 kts | 208° |
| 2026-04-25 10:14 | 48.46940 | 16.59008 | 12115 ft | 384 kts | 195° |
| 2026-04-25 10:15 | 48.44311 | 16.58452 | 11962 ft | 370 kts | 185° |
| 2026-04-25 10:15 | 48.41786 | 16.58562 | 11830 ft | 357 kts | 175° |
| 2026-04-25 10:15 | 48.39428 | 16.59245 | 11703 ft | 343 kts | 166° |
| 2026-04-25 10:15 | 48.37174 | 16.60187 | 11581 ft | 330 kts | 166° |
| 2026-04-25 10:16 | 48.35005 | 16.61095 | 11420 ft | 319 kts | 166° |
| 2026-04-25 10:16 | 48.32886 | 16.61980 | 11114 ft | 314 kts | 166° |
| 2026-04-25 10:16 | 48.30789 | 16.62858 | 10736 ft | 312 kts | 166° |
| 2026-04-25 10:16 | 48.28699 | 16.63735 | 10348 ft | 311 kts | 165° |
| 2026-04-25 10:17 | 48.26628 | 16.64607 | 10045 ft | 308 kts | 165° |
| 2026-04-25 10:17 | 48.24558 | 16.65476 | 10004 ft | 309 kts | 166° |
| 2026-04-25 10:17 | 48.22490 | 16.66341 | 9701 ft | 307 kts | 165° |
| 2026-04-25 10:17 | 48.20433 | 16.67200 | 9286 ft | 306 kts | 165° |
| 2026-04-25 10:18 | 48.18388 | 16.68056 | 8889 ft | 304 kts | 166° |
| 2026-04-25 10:18 | 48.16350 | 16.68906 | 8492 ft | 303 kts | 166° |
| 2026-04-25 10:18 | 48.14327 | 16.69749 | 8104 ft | 301 kts | 166° |
| 2026-04-25 10:18 | 48.12318 | 16.70587 | 7704 ft | 299 kts | 166° |
| 2026-04-25 10:19 | 48.10351 | 16.71411 | 7163 ft | 297 kts | 166° |
| 2026-04-25 10:19 | 48.08364 | 16.72242 | 6768 ft | 295 kts | 166° |
| 2026-04-25 10:19 | 48.06389 | 16.73066 | 6460 ft | 294 kts | 167° |
| 2026-04-25 10:19 | 48.04426 | 16.73882 | 6058 ft | 293 kts | 167° |
| 2026-04-25 10:20 | 48.02477 | 16.74692 | 5777 ft | 287 kts | 167° |
| 2026-04-25 10:20 | 48.00578 | 16.75482 | 5548 ft | 279 kts | 168° |
| 2026-04-25 10:20 | 47.98708 | 16.75818 | 5315 ft | 265 kts | 192° |
| 2026-04-25 10:20 | 47.97064 | 16.74895 | 5092 ft | 246 kts | 223° |
| 2026-04-25 10:21 | 47.96033 | 16.72998 | 4877 ft | 231 kts | 250° |
| 2026-04-25 10:21 | 47.95443 | 16.70832 | 4630 ft | 222 kts | 255° |
| 2026-04-25 10:21 | 47.94957 | 16.68674 | 4325 ft | 217 kts | 262° |
| 2026-04-25 10:21 | 47.95068 | 16.66514 | 3999 ft | 209 kts | 294° |
| 2026-04-25 10:22 | 47.95930 | 16.64815 | 3559 ft | 210 kts | 322° |
| 2026-04-25 10:22 | 47.97305 | 16.63961 | 3045 ft | 219 kts | 341° |
| 2026-04-25 10:22 | 47.98774 | 16.63370 | 2697 ft | 220 kts | 342° |
| 2026-04-25 10:22 | 48.00243 | 16.62768 | 2352 ft | 215 kts | 342° |
| 2026-04-25 10:23 | 48.01632 | 16.62186 | 2102 ft | 201 kts | 342° |
| 2026-04-25 10:23 | 48.02928 | 16.61641 | 1835 ft | 184 kts | 341° |
| 2026-04-25 10:23 | 48.04113 | 16.61141 | 1583 ft | 170 kts | 341° |
| 2026-04-25 10:23 | 48.05200 | 16.60683 | 1379 ft | 157 kts | 341° |
| 2026-04-25 10:24 | 48.06239 | 16.60244 | 1173 ft | 152 kts | 341° |
| 2026-04-25 10:24 | 48.07224 | 16.59830 | 949 ft | 142 kts | 342° |
| 2026-04-25 10:24 | 48.08141 | 16.59430 | 772 ft | 133 kts | 343° |
| 2026-04-25 10:24 | 48.09006 | 16.59075 | 640 ft | 125 kts | 343° |
| 2026-04-25 10:25 | 48.09792 | 16.58741 | 615 ft | 107 kts | 345° |
| 2026-04-25 10:25 | 48.10387 | 16.58490 | 612 ft | 63 kts | 344° |
| 2026-04-25 10:25 | 48.10658 | 16.58375 | 618 ft | 27 kts | 344° |
| 2026-04-25 10:25 | 48.10825 | 16.58304 | 621 ft | 23 kts | 344° |
| 2026-04-25 10:26 | 48.10966 | 16.58216 | 618 ft | 22 kts | 323° |
| 2026-04-25 10:26 | 48.11054 | 16.58035 | 611 ft | 22 kts | 297° |
| 2026-04-25 10:26 | 48.11119 | 16.57834 | 619 ft | 22 kts | 295° |
| 2026-04-25 10:26 | 48.11186 | 16.57634 | 618 ft | 22 kts | 296° |
| 2026-04-25 10:27 | 48.11251 | 16.57432 | 614 ft | 22 kts | 296° |
| 2026-04-25 10:27 | 48.11324 | 16.57346 | 609 ft | 13 kts | 24° |
| 2026-04-25 10:27 | 48.11404 | 16.57386 | 613 ft | 8 kts | 357° |
| 2026-04-25 10:27 | 48.11446 | 16.57320 | 622 ft | 8 kts | 282° |
| 2026-04-25 10:28 | 48.11402 | 16.57258 | 613 ft | 4 kts | 206° |
| 2026-04-25 10:28 | 48.11390 | 16.57250 | 614 ft | 0 kts | 205° |